Time;durP1;ratioP1;P1;durP2;ratioP2;P2;SDS_P1;SDS_P2;PMS_P1;PMS_P2;Temp;Humidity;BMP_temperature;BMP_pressure;BME280_temperature;BME280_humidity;BME280_pressure;Samples;Min_cycle;Max_cycle;Signal;HPM_P1;HPM_P2
2020/09/30 00:01:44;;;;;;;1.3;0.9;;;;;;;;;;;;;
2020/09/30 00:04:08;;;;;;;2.1;1;;;;;;;;;;;;;
2020/09/30 00:06:34;;;;;;;3.6;1.4;;;;;;;;;;;;;
2020/09/30 00:08:59;;;;;;;1.9;1;;;;;;;;;;;;;
2020/09/30 00:11:25;;;;;;;6.3;1.2;;;;;;;;;;;;;
2020/09/30 00:13:49;;;;;;;1.5;1;;;;;;;;;;;;;
2020/09/30 00:16:16;;;;;;;1.6;1.1;;;;;;;;;;;;;
2020/09/30 00:18:41;;;;;;;3.3;1.2;;;;;;;;;;;;;
2020/09/30 00:21:06;;;;;;;1.6;1;;;;;;;;;;;;;
2020/09/30 00:23:32;;;;;;;1.5;1.1;;;;;;;;;;;;;
2020/09/30 00:25:57;;;;;;;2.2;1.1;;;;;;;;;;;;;
2020/09/30 00:28:22;;;;;;;1.9;1;;;;;;;;;;;;;
2020/09/30 00:30:47;;;;;;;2.2;1;;;;;;;;;;;;;
2020/09/30 00:33:13;;;;;;;1.7;1.1;;;;;;;;;;;;;
2020/09/30 00:35:38;;;;;;;0.8;0.6;;;;;;;;;;;;;
2020/09/30 00:38:03;;;;;;;0.9;0.8;;;;;;;;;;;;;
2020/09/30 00:40:28;;;;;;;1.4;0.7;;;;;;;;;;;;;
2020/09/30 00:42:53;;;;;;;1.3;0.8;;;;;;;;;;;;;
2020/09/30 00:45:24;;;;;;;1.2;0.8;;;;;;;;;;;;;
2020/09/30 00:47:49;;;;;;;1.4;0.9;;;;;;;;;;;;;
2020/09/30 00:50:14;;;;;;;0.8;0.6;;;;;;;;;;;;;
2020/09/30 00:52:39;;;;;;;0.6;0.5;;;;;;;;;;;;;
2020/09/30 00:55:04;;;;;;;0.8;0.7;;;;;;;;;;;;;
2020/09/30 00:57:30;;;;;;;1.2;0.8;;;;;;;;;;;;;
2020/09/30 00:59:55;;;;;;;3.3;1;;;;;;;;;;;;;
2020/09/30 01:02:20;;;;;;;0.8;0.8;;;;;;;;;;;;;
2020/09/30 01:04:45;;;;;;;1.6;0.9;;;;;;;;;;;;;
2020/09/30 01:07:10;;;;;;;2;0.7;;;;;;;;;;;;;
2020/09/30 01:09:37;;;;;;;1.9;0.9;;;;;;;;;;;;;
2020/09/30 01:12:02;;;;;;;1.1;0.9;;;;;;;;;;;;;
2020/09/30 01:14:28;;;;;;;0.7;0.7;;;;;;;;;;;;;
2020/09/30 01:16:53;;;;;;;1.1;0.7;;;;;;;;;;;;;
2020/09/30 01:19:21;;;;;;;2.5;1;;;;;;;;;;;;;
2020/09/30 01:21:46;;;;;;;1.1;0.8;;;;;;;;;;;;;
2020/09/30 01:24:12;;;;;;;1.4;0.8;;;;;;;;;;;;;
2020/09/30 01:26:37;;;;;;;0.7;0.7;;;;;;;;;;;;;
2020/09/30 01:29:03;;;;;;;0.7;0.5;;;;;;;;;;;;;
2020/09/30 01:31:28;;;;;;;1.5;1;;;;;;;;;;;;;
2020/09/30 01:33:55;;;;;;;1.7;0.8;;;;;;;;;;;;;
2020/09/30 01:36:20;;;;;;;0.6;0.5;;;;;;;;;;;;;
2020/09/30 01:38:45;;;;;;;1.1;0.7;;;;;;;;;;;;;
2020/09/30 01:41:11;;;;;;;1.1;0.7;;;;;;;;;;;;;
2020/09/30 01:43:36;;;;;;;5.6;1.1;;;;;;;;;;;;;
2020/09/30 01:46:01;;;;;;;1.5;0.9;;;;;;;;;;;;;
2020/09/30 01:48:28;;;;;;;1.4;0.8;;;;;;;;;;;;;
2020/09/30 01:50:53;;;;;;;1.4;1;;;;;;;;;;;;;
2020/09/30 01:53:19;;;;;;;1.8;1.2;;;;;;;;;;;;;
2020/09/30 01:55:45;;;;;;;0.7;0.6;;;;;;;;;;;;;
2020/09/30 01:58:10;;;;;;;1;0.8;;;;;;;;;;;;;
2020/09/30 02:00:37;;;;;;;0.8;0.7;;;;;;;;;;;;;
2020/09/30 02:03:02;;;;;;;1.6;1;;;;;;;;;;;;;
2020/09/30 02:05:27;;;;;;;1.1;1;;;;;;;;;;;;;
2020/09/30 02:07:54;;;;;;;1.7;1.1;;;;;;;;;;;;;
2020/09/30 02:10:21;;;;;;;1.3;0.8;;;;;;;;;;;;;
2020/09/30 02:12:48;;;;;;;3;1;;;;;;;;;;;;;
2020/09/30 02:15:13;;;;;;;0.7;0.7;;;;;;;;;;;;;
2020/09/30 02:17:38;;;;;;;2.6;1;;;;;;;;;;;;;
2020/09/30 02:20:03;;;;;;;1.4;0.9;;;;;;;;;;;;;
2020/09/30 02:22:28;;;;;;;1;0.9;;;;;;;;;;;;;
2020/09/30 02:24:53;;;;;;;2;1;;;;;;;;;;;;;
2020/09/30 02:27:19;;;;;;;1.2;1;;;;;;;;;;;;;
2020/09/30 02:29:45;;;;;;;1.5;1;;;;;;;;;;;;;
2020/09/30 02:32:11;;;;;;;2.1;0.9;;;;;;;;;;;;;
2020/09/30 02:34:36;;;;;;;2;1.1;;;;;;;;;;;;;
2020/09/30 02:37:03;;;;;;;1.5;1;;;;;;;;;;;;;
2020/09/30 02:39:28;;;;;;;1.4;0.9;;;;;;;;;;;;;
2020/09/30 02:41:55;;;;;;;1.9;0.9;;;;;;;;;;;;;
2020/09/30 02:44:20;;;;;;;3.1;0.9;;;;;;;;;;;;;
2020/09/30 02:46:45;;;;;;;2.7;0.9;;;;;;;;;;;;;
2020/09/30 02:49:11;;;;;;;1.2;0.9;;;;;;;;;;;;;
2020/09/30 02:51:36;;;;;;;2.7;0.9;;;;;;;;;;;;;
2020/09/30 02:54:01;;;;;;;0.8;0.8;;;;;;;;;;;;;
2020/09/30 02:56:27;;;;;;;1.2;1;;;;;;;;;;;;;
2020/09/30 02:58:52;;;;;;;1.6;0.8;;;;;;;;;;;;;
2020/09/30 03:01:20;;;;;;;2.5;1.1;;;;;;;;;;;;;
2020/09/30 03:03:45;;;;;;;2.2;0.9;;;;;;;;;;;;;
2020/09/30 03:06:11;;;;;;;2.6;0.9;;;;;;;;;;;;;
2020/09/30 03:08:36;;;;;;;1.6;0.9;;;;;;;;;;;;;
2020/09/30 03:11:03;;;;;;;1.3;0.8;;;;;;;;;;;;;
2020/09/30 03:13:28;;;;;;;1.3;1.1;;;;;;;;;;;;;
2020/09/30 03:15:53;;;;;;;1.1;0.9;;;;;;;;;;;;;
2020/09/30 03:18:18;;;;;;;2.1;1.3;;;;;;;;;;;;;
2020/09/30 03:20:44;;;;;;;1.7;1.3;;;;;;;;;;;;;
2020/09/30 03:23:10;;;;;;;1.5;1;;;;;;;;;;;;;
2020/09/30 03:25:35;;;;;;;1.7;1.3;;;;;;;;;;;;;
2020/09/30 03:28:00;;;;;;;2.8;1.3;;;;;;;;;;;;;
2020/09/30 03:30:29;;;;;;;2.7;1.1;;;;;;;;;;;;;
2020/09/30 03:32:54;;;;;;;2.5;1.3;;;;;;;;;;;;;
2020/09/30 03:35:20;;;;;;;1.5;1.1;;;;;;;;;;;;;
2020/09/30 03:37:45;;;;;;;2.2;1.2;;;;;;;;;;;;;
2020/09/30 03:40:11;;;;;;;1.4;0.9;;;;;;;;;;;;;
2020/09/30 03:42:36;;;;;;;2.5;1.2;;;;;;;;;;;;;
2020/09/30 03:45:01;;;;;;;2.1;1;;;;;;;;;;;;;
2020/09/30 03:47:26;;;;;;;0.9;0.8;;;;;;;;;;;;;
2020/09/30 03:49:51;;;;;;;4;0.9;;;;;;;;;;;;;
2020/09/30 03:52:17;;;;;;;1.4;1.1;;;;;;;;;;;;;
2020/09/30 03:54:42;;;;;;;1.7;0.9;;;;;;;;;;;;;
2020/09/30 03:57:07;;;;;;;1;0.9;;;;;;;;;;;;;
2020/09/30 03:59:32;;;;;;;1.7;1.1;;;;;;;;;;;;;
2020/09/30 04:02:41;;;;;;;1.1;0.9;;;;;;;12.72;86.38574;938.816;;;;
2020/09/30 04:05:08;;;;;;;2.5;1;;;;;;;12.78;86.29492;938.7866;;;;
2020/09/30 04:07:36;;;;;;;1.4;1.1;;;;;;;12.8;86.18359;938.7514;;;;
2020/09/30 04:10:01;;;;;;;1.1;0.8;;;;;;;12.72;86.59375;938.8064;;;;
2020/09/30 04:12:26;;;;;;;1.4;1.1;;;;;;;12.67;86.8125;938.8031;;;;
2020/09/30 04:14:52;;;;;;;1.2;0.8;;;;;;;12.59;87.34766;938.7978;;;;
2020/09/30 04:17:17;;;;;;;3.1;1.3;;;;;;;12.64;87.10547;938.803;;;;
2020/09/30 04:19:42;;;;;;;1.5;0.9;;;;;;;12.63;87.02148;938.7806;;;;
2020/09/30 04:22:09;;;;;;;1.9;1.3;;;;;;;12.51;87.36523;938.7042;;;;
2020/09/30 04:24:34;;;;;;;2.3;1.5;;;;;;;12.42;87.95508;938.7463;;;;
2020/09/30 04:26:59;;;;;;;4.2;1.9;;;;;;;12.56;87.54785;938.662;;;;
2020/09/30 04:29:24;;;;;;;2.5;1.5;;;;;;;12.62;87.28418;938.7064;;;;
2020/09/30 04:31:49;;;;;;;1;0.9;;;;;;;12.67;87.13379;938.629;;;;
2020/09/30 04:34:15;;;;;;;1.1;0.9;;;;;;;12.72;87.16602;938.6091;;;;
2020/09/30 04:36:43;;;;;;;2;1;;;;;;;12.76;86.75098;938.6011;;;;
2020/09/30 04:39:08;;;;;;;2.5;1;;;;;;;12.7;86.24414;938.625;;;;
2020/09/30 04:41:36;;;;;;;2;1.1;;;;;;;12.6;87.07324;938.579;;;;
2020/09/30 04:44:01;;;;;;;1.8;1.2;;;;;;;12.63;87.11328;938.5873;;;;
2020/09/30 04:46:30;;;;;;;2;1.3;;;;;;;12.66;86.87793;938.5658;;;;
2020/09/30 04:48:55;;;;;;;1.5;1.1;;;;;;;12.66;86.94824;938.6505;;;;
2020/09/30 04:51:22;;;;;;;4.1;1.1;;;;;;;12.71;86.73926;938.6274;;;;
2020/09/30 04:53:47;;;;;;;1.4;1.1;;;;;;;12.71;86.38574;938.6194;;;;
2020/09/30 04:56:12;;;;;;;1.1;1;;;;;;;12.69;86.28711;938.6345;;;;
2020/09/30 04:58:37;;;;;;;5.3;1.5;;;;;;;12.66;86.53516;938.637;;;;
2020/09/30 05:01:03;;;;;;;2.4;1.2;;;;;;;12.63;86.76953;938.6185;;;;
2020/09/30 05:03:31;;;;;;;1.2;0.9;;;;;;;12.65;86.8877;938.6657;;;;
2020/09/30 05:05:56;;;;;;;1.3;0.7;;;;;;;12.69;86.54102;938.6314;;;;
2020/09/30 05:08:22;;;;;;;0.7;0.6;;;;;;;12.69;86.33301;938.51;;;;
2020/09/30 05:10:52;;;;;;;1.1;0.7;;;;;;;12.67;85.9043;938.5594;;;;
2020/09/30 05:13:17;;;;;;;0.6;0.5;;;;;;;12.6;85.76367;938.5295;;;;
2020/09/30 05:15:45;;;;;;;0.6;0.6;;;;;;;12.62;85.78125;938.5474;;;;
2020/09/30 05:18:10;;;;;;;1;0.6;;;;;;;12.62;85.67773;938.5474;;;;
2020/09/30 05:20:35;;;;;;;0.9;0.7;;;;;;;12.66;85.77637;938.5826;;;;
2020/09/30 05:23:01;;;;;;;0.6;0.5;;;;;;;12.66;85.14551;938.5722;;;;
2020/09/30 05:25:26;;;;;;;1.2;0.4;;;;;;;12.63;85.6582;938.5801;;;;
2020/09/30 05:27:51;;;;;;;1.4;0.8;;;;;;;12.67;85.88379;938.5762;;;;
2020/09/30 05:30:24;;;;;;;0.6;0.6;;;;;;;12.74;85.31055;938.5372;;;;
2020/09/30 05:32:50;;;;;;;1.3;0.6;;;;;;;12.78;85.03125;938.574;;;;
2020/09/30 05:35:15;;;;;;;0.6;0.5;;;;;;;12.72;85.86914;938.5292;;;;
2020/09/30 05:37:44;;;;;;;1.1;0.8;;;;;;;12.73;85.67578;938.5331;;;;
2020/09/30 05:40:09;;;;;;;1.5;0.5;;;;;;;12.65;85.26953;938.5666;;;;
2020/09/30 05:42:38;;;;;;;0.8;0.5;;;;;;;12.67;85.66406;938.617;;;;
2020/09/30 05:45:03;;;;;;;0.9;0.6;;;;;;;12.69;85.70313;938.6537;;;;
2020/09/30 05:47:33;;;;;;;2.8;1.2;;;;;;;12.55;85.92676;938.7195;;;;
2020/09/30 05:49:58;;;;;;;3.6;1.5;;;;;;;12.52;86.20898;938.6714;;;;
2020/09/30 05:52:28;;;;;;;3.7;1.4;;;;;;;12.58;86.30176;938.6453;;;;
2020/09/30 05:54:53;;;;;;;1.5;1.1;;;;;;;12.57;86.36816;938.6564;;;;
2020/09/30 05:57:19;;;;;;;1.5;1;;;;;;;12.57;86.86133;938.6692;;;;
2020/09/30 05:59:49;;;;;;;1.3;1;;;;;;;12.68;86.61816;938.7321;;;;
2020/09/30 06:02:15;;;;;;;2.2;1.1;;;;;;;12.77;86.0752;938.7363;;;;
2020/09/30 06:04:43;;;;;;;1.2;0.9;;;;;;;12.88;86.07324;938.7255;;;;
2020/09/30 06:07:09;;;;;;;1.4;0.7;;;;;;;12.94;85.39746;938.7087;;;;
2020/09/30 06:09:36;;;;;;;2.9;0.6;;;;;;;12.97;84.79199;938.7231;;;;
2020/09/30 06:12:06;;;;;;;0.7;0.6;;;;;;;12.95;84.5498;938.7288;;;;
2020/09/30 06:14:35;;;;;;;2.7;0.7;;;;;;;12.88;85.32715;938.7791;;;;
2020/09/30 06:17:00;;;;;;;0.9;0.8;;;;;;;12.95;85.2041;938.835;;;;
2020/09/30 06:19:28;;;;;;;1.2;0.7;;;;;;;12.97;85.72461;938.8478;;;;
2020/09/30 06:21:56;;;;;;;1.9;1.2;;;;;;;13.04;84.79688;938.8578;;;;
2020/09/30 06:24:22;;;;;;;0.8;0.7;;;;;;;;;;;;;
2020/09/30 06:26:47;;;;;;;1.8;0.8;;;;;;;;;;;;;
2020/09/30 06:29:13;;;;;;;1.9;1;;;;;;;;;;;;;
2020/09/30 06:31:39;;;;;;;0.9;0.7;;;;;;;;;;;;;
2020/09/30 06:34:05;;;;;;;1.1;0.8;;;;;;;;;;;;;
2020/09/30 06:36:31;;;;;;;3.3;1.1;;;;;;;;;;;;;
2020/09/30 06:38:57;;;;;;;5.4;1;;;;;;;;;;;;;
2020/09/30 06:41:22;;;;;;;1.1;1;;;;;;;;;;;;;
2020/09/30 06:43:48;;;;;;;1.8;1;;;;;;;;;;;;;
2020/09/30 06:46:13;;;;;;;5.3;1.3;;;;;;;;;;;;;
2020/09/30 06:48:40;;;;;;;2.5;0.9;;;;;;;;;;;;;
2020/09/30 06:51:05;;;;;;;5;1.3;;;;;;;;;;;;;
2020/09/30 06:53:32;;;;;;;3;1;;;;;;;;;;;;;
2020/09/30 06:55:57;;;;;;;1.8;1;;;;;;;;;;;;;
2020/09/30 06:58:22;;;;;;;0.8;0.7;;;;;;;;;;;;;
2020/09/30 07:00:47;;;;;;;1.9;1;;;;;;;;;;;;;
2020/09/30 07:03:13;;;;;;;2.4;0.8;;;;;;;;;;;;;
2020/09/30 07:05:38;;;;;;;1.1;0.7;;;;;;;;;;;;;
2020/09/30 07:08:02;;;;;;;1.9;0.7;;;;;;;;;;;;;
2020/09/30 07:10:27;;;;;;;1.8;0.8;;;;;;;;;;;;;
2020/09/30 07:12:54;;;;;;;0.6;0.6;;;;;;;;;;;;;
2020/09/30 07:15:20;;;;;;;1.5;0.8;;;;;;;;;;;;;
2020/09/30 07:17:47;;;;;;;0.6;0.6;;;;;;;;;;;;;
2020/09/30 07:20:12;;;;;;;1;0.7;;;;;;;;;;;;;
2020/09/30 07:22:38;;;;;;;2.6;0.7;;;;;;;;;;;;;
2020/09/30 07:25:03;;;;;;;0.6;0.5;;;;;;;;;;;;;
2020/09/30 07:27:29;;;;;;;0.7;0.4;;;;;;;;;;;;;
2020/09/30 07:29:54;;;;;;;0.6;0.4;;;;;;;;;;;;;
2020/09/30 07:32:20;;;;;;;0.9;0.4;;;;;;;;;;;;;
2020/09/30 07:34:46;;;;;;;0.4;0.3;;;;;;;;;;;;;
2020/09/30 07:37:13;;;;;;;0.3;0.3;;;;;;;;;;;;;
2020/09/30 07:39:38;;;;;;;0.5;0.3;;;;;;;;;;;;;
2020/09/30 07:42:04;;;;;;;1.7;0.5;;;;;;;;;;;;;
2020/09/30 07:44:29;;;;;;;0.3;0.3;;;;;;;;;;;;;
2020/09/30 07:46:56;;;;;;;0.4;0.3;;;;;;;;;;;;;
2020/09/30 07:49:21;;;;;;;0.4;0.4;;;;;;;;;;;;;
2020/09/30 07:51:50;;;;;;;0.4;0.3;;;;;;;;;;;;;
2020/09/30 07:54:14;;;;;;;0.7;0.5;;;;;;;;;;;;;
2020/09/30 07:56:39;;;;;;;0.3;0.3;;;;;;;;;;;;;
2020/09/30 07:59:06;;;;;;;0.5;0.5;;;;;;;;;;;;;
2020/09/30 08:01:29;;;;;;;1.2;0.6;;;;;;;;;;;;;
2020/09/30 08:03:55;;;;;;;0.5;0.5;;;;;;;;;;;;;
2020/09/30 08:06:20;;;;;;;0.7;0.6;;;;;;;;;;;;;
2020/09/30 08:08:47;;;;;;;0.5;0.4;;;;;;;;;;;;;
2020/09/30 08:11:10;;;;;;;0.9;0.5;;;;;;;;;;;;;
2020/09/30 08:13:35;;;;;;;1;0.5;;;;;;;;;;;;;
2020/09/30 08:16:00;;;;;;;0.6;0.4;;;;;;;;;;;;;
2020/09/30 08:18:26;;;;;;;0.6;0.4;;;;;;;;;;;;;
2020/09/30 08:20:51;;;;;;;3.1;0.6;;;;;;;;;;;;;
2020/09/30 08:23:17;;;;;;;0.7;0.5;;;;;;;;;;;;;
2020/09/30 08:25:42;;;;;;;1.6;0.6;;;;;;;;;;;;;
2020/09/30 08:28:08;;;;;;;0.6;0.5;;;;;;;;;;;;;
2020/09/30 08:30:33;;;;;;;1.9;0.7;;;;;;;;;;;;;
2020/09/30 08:32:58;;;;;;;2.4;0.8;;;;;;;;;;;;;
2020/09/30 08:35:23;;;;;;;0.9;0.5;;;;;;;;;;;;;
2020/09/30 08:37:48;;;;;;;0.2;0.2;;;;;;;;;;;;;
2020/09/30 08:40:15;;;;;;;0.3;0.3;;;;;;;;;;;;;
2020/09/30 08:42:40;;;;;;;0.2;0.2;;;;;;;;;;;;;
2020/09/30 08:45:05;;;;;;;1.1;0.7;;;;;;;;;;;;;
2020/09/30 08:47:30;;;;;;;0.5;0.4;;;;;;;;;;;;;
2020/09/30 08:49:56;;;;;;;0.8;0.5;;;;;;;;;;;;;
2020/09/30 08:52:21;;;;;;;1.4;0.7;;;;;;;;;;;;;
2020/09/30 08:54:48;;;;;;;0.7;0.4;;;;;;;;;;;;;
2020/09/30 08:57:13;;;;;;;0.8;0.6;;;;;;;;;;;;;
2020/09/30 08:59:39;;;;;;;1.1;0.6;;;;;;;;;;;;;
2020/09/30 09:02:04;;;;;;;1.2;0.7;;;;;;;;;;;;;
2020/09/30 09:04:30;;;;;;;1.1;0.6;;;;;;;;;;;;;
2020/09/30 09:06:55;;;;;;;1;0.5;;;;;;;;;;;;;
2020/09/30 09:09:21;;;;;;;1.2;0.6;;;;;;;;;;;;;
2020/09/30 09:11:46;;;;;;;0.8;0.6;;;;;;;;;;;;;
2020/09/30 09:14:11;;;;;;;0.7;0.7;;;;;;;;;;;;;
2020/09/30 09:16:36;;;;;;;1.5;0.8;;;;;;;;;;;;;
2020/09/30 09:19:02;;;;;;;1.1;0.7;;;;;;;;;;;;;
2020/09/30 09:21:26;;;;;;;0.5;0.5;;;;;;;;;;;;;
2020/09/30 09:23:52;;;;;;;0.5;0.4;;;;;;;;;;;;;
2020/09/30 09:26:17;;;;;;;1.4;0.6;;;;;;;;;;;;;
2020/09/30 09:28:42;;;;;;;0.7;0.5;;;;;;;;;;;;;
2020/09/30 09:31:10;;;;;;;0.4;0.3;;;;;;;;;;;;;
2020/09/30 09:33:35;;;;;;;0.2;0.2;;;;;;;;;;;;;
2020/09/30 09:36:01;;;;;;;2;0.4;;;;;;;;;;;;;
2020/09/30 09:38:26;;;;;;;0.7;0.5;;;;;;;;;;;;;
2020/09/30 09:40:55;;;;;;;0.7;0.5;;;;;;;;;;;;;
2020/09/30 09:43:20;;;;;;;0.9;0.5;;;;;;;;;;;;;
2020/09/30 09:45:46;;;;;;;0.5;0.4;;;;;;;;;;;;;
2020/09/30 09:48:12;;;;;;;0.5;0.5;;;;;;;;;;;;;
2020/09/30 09:50:36;;;;;;;0.7;0.2;;;;;;;;;;;;;
2020/09/30 09:53:02;;;;;;;1.2;0.6;;;;;;;;;;;;;
2020/09/30 09:55:27;;;;;;;0.4;0.3;;;;;;;;;;;;;
2020/09/30 09:57:52;;;;;;;1.3;0.3;;;;;;;;;;;;;
2020/09/30 10:00:26;;;;;;;0.6;0.5;;;;;;;;;;;;;
2020/09/30 10:02:52;;;;;;;0.6;0.4;;;;;;;;;;;;;
2020/09/30 10:05:17;;;;;;;0.4;0.2;;;;;;;;;;;;;
2020/09/30 10:07:42;;;;;;;0.7;0.2;;;;;;;;;;;;;
2020/09/30 10:10:07;;;;;;;0.4;0.3;;;;;;;;;;;;;
2020/09/30 10:12:34;;;;;;;0.6;0.6;;;;;;;;;;;;;
2020/09/30 10:14:59;;;;;;;1.7;0.6;;;;;;;;;;;;;
2020/09/30 10:17:26;;;;;;;0.5;0.5;;;;;;;;;;;;;
2020/09/30 10:19:51;;;;;;;0.8;0.7;;;;;;;;;;;;;
2020/09/30 10:22:16;;;;;;;0.6;0.4;;;;;;;;;;;;;
2020/09/30 10:24:41;;;;;;;0.4;0.3;;;;;;;;;;;;;
2020/09/30 10:27:08;;;;;;;1.2;0.5;;;;;;;;;;;;;
2020/09/30 10:29:33;;;;;;;1.2;1;;;;;;;;;;;;;
2020/09/30 10:32:00;;;;;;;0.4;0.4;;;;;;;;;;;;;
2020/09/30 10:34:26;;;;;;;1.4;0.7;;;;;;;;;;;;;
2020/09/30 10:36:51;;;;;;;0.2;0.2;;;;;;;;;;;;;
2020/09/30 10:39:16;;;;;;;0.3;0.2;;;;;;;;;;;;;
2020/09/30 10:41:42;;;;;;;1.7;0.7;;;;;;;;;;;;;
2020/09/30 10:44:07;;;;;;;0.3;0.3;;;;;;;;;;;;;
2020/09/30 10:46:33;;;;;;;0.7;0.4;;;;;;;;;;;;;
2020/09/30 10:48:58;;;;;;;0.5;0.3;;;;;;;;;;;;;
2020/09/30 10:51:24;;;;;;;0.2;0.1;;;;;;;;;;;;;
2020/09/30 10:53:49;;;;;;;0.5;0.2;;;;;;;;;;;;;
2020/09/30 10:56:15;;;;;;;0.2;0.2;;;;;;;;;;;;;
2020/09/30 10:58:40;;;;;;;0.4;0.3;;;;;;;;;;;;;
2020/09/30 11:01:07;;;;;;;0.2;0.2;;;;;;;;;;;;;
2020/09/30 11:03:32;;;;;;;1.5;0.5;;;;;;;;;;;;;
2020/09/30 11:05:58;;;;;;;0.3;0.2;;;;;;;;;;;;;
2020/09/30 11:08:23;;;;;;;0.2;0.2;;;;;;;;;;;;;
2020/09/30 11:10:49;;;;;;;0.3;0.2;;;;;;;;;;;;;
2020/09/30 11:13:14;;;;;;;0.1;0.1;;;;;;;;;;;;;
2020/09/30 11:15:44;;;;;;;0.4;0.3;;;;;;;;;;;;;
2020/09/30 11:18:07;;;;;;;0.2;0.2;;;;;;;;;;;;;
2020/09/30 11:20:33;;;;;;;0.7;0.4;;;;;;;;;;;;;
2020/09/30 11:22:58;;;;;;;0.4;0.3;;;;;;;;;;;;;
2020/09/30 11:25:23;;;;;;;0.5;0.2;;;;;;;;;;;;;
2020/09/30 11:27:48;;;;;;;0;0;;;;;;;;;;;;;
2020/09/30 11:30:19;;;;;;;0.3;0.2;;;;;;;;;;;;;
2020/09/30 11:32:46;;;;;;;0.3;0.2;;;;;;;;;;;;;
2020/09/30 11:35:11;;;;;;;0.6;0.4;;;;;;;;;;;;;
2020/09/30 11:37:36;;;;;;;0.2;0.1;;;;;;;;;;;;;
2020/09/30 11:40:01;;;;;;;0.7;0.4;;;;;;;;;;;;;
2020/09/30 11:42:28;;;;;;;2.9;0.5;;;;;;;;;;;;;
2020/09/30 11:44:53;;;;;;;0.2;0.2;;;;;;;;;;;;;
2020/09/30 11:47:19;;;;;;;0.1;0.1;;;;;;;;;;;;;
2020/09/30 11:49:44;;;;;;;0.5;0.2;;;;;;;;;;;;;
2020/09/30 11:52:12;;;;;;;1;0.2;;;;;;;;;;;;;
2020/09/30 11:54:37;;;;;;;0.5;0.3;;;;;;;;;;;;;
2020/09/30 11:57:02;;;;;;;0;0;;;;;;;;;;;;;
2020/09/30 11:59:27;;;;;;;0.2;0.2;;;;;;;;;;;;;
2020/09/30 12:01:54;;;;;;;0.1;0.1;;;;;;;;;;;;;
2020/09/30 12:04:19;;;;;;;0.4;0.1;;;;;;;;;;;;;
2020/09/30 12:06:45;;;;;;;0.2;0.2;;;;;;;;;;;;;
2020/09/30 12:09:10;;;;;;;0.3;0.3;;;;;;;;;;;;;
2020/09/30 12:11:38;;;;;;;5.6;0.8;;;;;;;;;;;;;
2020/09/30 12:14:02;;;;;;;0.6;0.3;;;;;;;;;;;;;
2020/09/30 12:16:28;;;;;;;1.2;0.2;;;;;;;;;;;;;
2020/09/30 12:18:53;;;;;;;0.4;0.2;;;;;;;;;;;;;
2020/09/30 12:21:18;;;;;;;0.4;0.2;;;;;;;;;;;;;
2020/09/30 12:23:44;;;;;;;0.1;0.1;;;;;;;;;;;;;
2020/09/30 12:26:10;;;;;;;0.1;0.1;;;;;;;;;;;;;
2020/09/30 12:28:35;;;;;;;0.9;0.4;;;;;;;;;;;;;
2020/09/30 12:31:02;;;;;;;0.5;0.3;;;;;;;;;;;;;
2020/09/30 12:33:28;;;;;;;0.4;0.2;;;;;;;;;;;;;
2020/09/30 12:35:53;;;;;;;0.9;0.4;;;;;;;;;;;;;
2020/09/30 12:38:18;;;;;;;0.1;0.1;;;;;;;;;;;;;
2020/09/30 12:40:45;;;;;;;0.2;0.2;;;;;;;;;;;;;
2020/09/30 12:43:10;;;;;;;0.1;0.1;;;;;;;;;;;;;
2020/09/30 12:45:37;;;;;;;0.4;0.3;;;;;;;;;;;;;
2020/09/30 12:48:02;;;;;;;0.6;0.2;;;;;;;;;;;;;
2020/09/30 12:50:27;;;;;;;0.6;0.2;;;;;;;;;;;;;
2020/09/30 12:52:53;;;;;;;0.1;0.1;;;;;;;;;;;;;
2020/09/30 12:55:19;;;;;;;0.3;0.1;;;;;;;;;;;;;
2020/09/30 12:57:44;;;;;;;0.1;0.1;;;;;;;;;;;;;
2020/09/30 13:00:11;;;;;;;0.2;0.1;;;;;;;;;;;;;
2020/09/30 13:02:37;;;;;;;0.8;0.3;;;;;;;;;;;;;
2020/09/30 13:05:02;;;;;;;0.3;0.3;;;;;;;;;;;;;
2020/09/30 13:07:27;;;;;;;0.1;0.1;;;;;;;;;;;;;
2020/09/30 13:09:57;;;;;;;0.2;0.2;;;;;;;;;;;;;
2020/09/30 13:12:18;;;;;;;0.5;0.1;;;;;;;;;;;;;
2020/09/30 13:14:45;;;;;;;1.5;0.2;;;;;;;;;;;;;
2020/09/30 13:17:12;;;;;;;1.1;0.3;;;;;;;;;;;;;
2020/09/30 13:19:36;;;;;;;0.9;0.4;;;;;;;;;;;;;
2020/09/30 13:22:01;;;;;;;0.7;0.3;;;;;;;;;;;;;
2020/09/30 13:24:27;;;;;;;0.4;0.2;;;;;;;;;;;;;
2020/09/30 13:26:55;;;;;;;0.4;0.2;;;;;;;;;;;;;
2020/09/30 13:29:19;;;;;;;0.3;0.2;;;;;;;;;;;;;
2020/09/30 13:31:45;;;;;;;0.9;0.3;;;;;;;;;;;;;
2020/09/30 13:34:23;;;;;;;0.4;0.3;;;;;;;;;;;;;
2020/09/30 13:39:07;;;;;;;0.3;0.3;;;;;;;;;;;;;
2020/09/30 13:41:31;;;;;;;0.6;0.4;;;;;;;;;;;;;
2020/09/30 13:43:56;;;;;;;0.2;0.1;;;;;;;;;;;;;
2020/09/30 13:46:21;;;;;;;0.1;0.1;;;;;;;;;;;;;
2020/09/30 13:48:46;;;;;;;0.4;0.2;;;;;;;;;;;;;
2020/09/30 13:51:11;;;;;;;1.8;0.4;;;;;;;;;;;;;
2020/09/30 13:53:38;;;;;;;0.2;0.2;;;;;;;;;;;;;
2020/09/30 13:56:03;;;;;;;1.4;0.2;;;;;;;;;;;;;
2020/09/30 13:58:29;;;;;;;0.6;0.6;;;;;;;;;;;;;
2020/09/30 14:00:54;;;;;;;0.5;0.2;;;;;;;;;;;;;
2020/09/30 14:03:22;;;;;;;1.2;0.3;;;;;;;;;;;;;
2020/09/30 14:05:47;;;;;;;0.5;0.2;;;;;;;;;;;;;
2020/09/30 14:08:13;;;;;;;0.7;0.4;;;;;;;;;;;;;
2020/09/30 14:10:38;;;;;;;0.5;0.4;;;;;;;;;;;;;
2020/09/30 14:13:03;;;;;;;0.2;0.1;;;;;;;;;;;;;
2020/09/30 14:15:28;;;;;;;0.7;0.2;;;;;;;;;;;;;
2020/09/30 14:17:55;;;;;;;0.4;0.3;;;;;;;;;;;;;
2020/09/30 14:20:20;;;;;;;1.5;0.6;;;;;;;;;;;;;
2020/09/30 14:22:46;;;;;;;0.2;0.1;;;;;;;;;;;;;
2020/09/30 14:25:11;;;;;;;0.9;0.2;;;;;;;;;;;;;
2020/09/30 14:27:37;;;;;;;0.5;0.4;;;;;;;;;;;;;
2020/09/30 14:30:02;;;;;;;0.3;0.2;;;;;;;;;;;;;
2020/09/30 14:32:29;;;;;;;0.5;0.3;;;;;;;;;;;;;
2020/09/30 14:34:54;;;;;;;0.7;0.2;;;;;;;;;;;;;
2020/09/30 14:37:19;;;;;;;0.8;0.3;;;;;;;;;;;;;
2020/09/30 14:39:44;;;;;;;0.5;0.3;;;;;;;;;;;;;
2020/09/30 14:42:09;;;;;;;0.5;0.4;;;;;;;;;;;;;
2020/09/30 14:44:34;;;;;;;0.4;0.3;;;;;;;;;;;;;
2020/09/30 14:47:00;;;;;;;0.4;0.3;;;;;;;;;;;;;
2020/09/30 14:49:27;;;;;;;0.8;0.5;;;;;;;;;;;;;
2020/09/30 14:51:51;;;;;;;0.8;0.5;;;;;;;;;;;;;
2020/09/30 14:54:17;;;;;;;1.7;0.7;;;;;;;;;;;;;
2020/09/30 14:56:44;;;;;;;1.1;0.5;;;;;;;;;;;;;
2020/09/30 14:59:08;;;;;;;0.8;0.5;;;;;;;;;;;;;
2020/09/30 15:01:33;;;;;;;1;0.3;;;;;;;;;;;;;
2020/09/30 15:03:58;;;;;;;0.3;0.2;;;;;;;;;;;;;
2020/09/30 15:06:23;;;;;;;1.2;0.5;;;;;;;;;;;;;
2020/09/30 15:08:48;;;;;;;1.2;0.7;;;;;;;;;;;;;
2020/09/30 15:11:15;;;;;;;0.6;0.4;;;;;;;;;;;;;
2020/09/30 15:13:40;;;;;;;0.5;0.5;;;;;;;;;;;;;
2020/09/30 15:16:06;;;;;;;1.2;0.5;;;;;;;;;;;;;
2020/09/30 15:18:31;;;;;;;0.4;0.4;;;;;;;;;;;;;
2020/09/30 15:20:57;;;;;;;0.7;0.4;;;;;;;;;;;;;
2020/09/30 15:23:22;;;;;;;1.1;0.6;;;;;;;;;;;;;
2020/09/30 15:25:49;;;;;;;0.9;0.5;;;;;;;;;;;;;
2020/09/30 15:28:14;;;;;;;1.2;0.4;;;;;;;;;;;;;
2020/09/30 15:30:40;;;;;;;0.5;0.3;;;;;;;;;;;;;
2020/09/30 15:33:05;;;;;;;0.3;0.3;;;;;;;;;;;;;
2020/09/30 15:35:30;;;;;;;0.2;0.2;;;;;;;;;;;;;
2020/09/30 15:37:55;;;;;;;0.9;0.4;;;;;;;;;;;;;
2020/09/30 15:40:21;;;;;;;0.7;0.6;;;;;;;;;;;;;
2020/09/30 15:42:46;;;;;;;0.5;0.4;;;;;;;;;;;;;
2020/09/30 15:45:17;;;;;;;1.1;0.5;;;;;;;;;;;;;
2020/09/30 15:47:45;;;;;;;1.1;0.3;;;;;;;;;;;;;
2020/09/30 15:50:09;;;;;;;1.8;0.6;;;;;;;;;;;;;
2020/09/30 15:52:35;;;;;;;0.5;0.3;;;;;;;;;;;;;
2020/09/30 15:55:00;;;;;;;1.1;0.6;;;;;;;;;;;;;
2020/09/30 15:57:25;;;;;;;0.3;0.2;;;;;;;;;;;;;
2020/09/30 15:59:51;;;;;;;0.3;0.3;;;;;;;;;;;;;
2020/09/30 16:02:16;;;;;;;0.5;0.5;;;;;;;;;;;;;
2020/09/30 16:04:41;;;;;;;0.5;0.4;;;;;;;;;;;;;
2020/09/30 16:07:06;;;;;;;0.5;0.5;;;;;;;;;;;;;
2020/09/30 16:09:31;;;;;;;1.3;0.8;;;;;;;;;;;;;
2020/09/30 16:11:56;;;;;;;1;0.9;;;;;;;;;;;;;
2020/09/30 16:14:22;;;;;;;1.2;0.7;;;;;;;;;;;;;
2020/09/30 16:16:47;;;;;;;1.2;0.7;;;;;;;;;;;;;
2020/09/30 16:19:16;;;;;;;1.5;0.8;;;;;;;;;;;;;
2020/09/30 16:21:41;;;;;;;0.6;0.4;;;;;;;;;;;;;
2020/09/30 16:24:07;;;;;;;0.9;0.5;;;;;;;;;;;;;
2020/09/30 16:26:32;;;;;;;1.1;0.9;;;;;;;;;;;;;
2020/09/30 16:28:57;;;;;;;0.5;0.5;;;;;;;;;;;;;
2020/09/30 16:31:22;;;;;;;1.4;0.6;;;;;;;;;;;;;
2020/09/30 16:33:48;;;;;;;0.9;0.5;;;;;;;;;;;;;
2020/09/30 16:36:13;;;;;;;0.4;0.3;;;;;;;;;;;;;
2020/09/30 16:38:40;;;;;;;0.7;0.5;;;;;;;;;;;;;
2020/09/30 16:41:05;;;;;;;0.6;0.4;;;;;;;;;;;;;
2020/09/30 16:43:31;;;;;;;1.3;0.6;;;;;;;;;;;;;
2020/09/30 16:45:56;;;;;;;0.3;0.3;;;;;;;;;;;;;
2020/09/30 16:48:26;;;;;;;3.1;0.6;;;;;;;;;;;;;
2020/09/30 16:50:51;;;;;;;1;0.5;;;;;;;;;;;;;
2020/09/30 16:53:16;;;;;;;0.9;0.7;;;;;;;;;;;;;
2020/09/30 16:55:41;;;;;;;0.6;0.4;;;;;;;;;;;;;
2020/09/30 16:58:06;;;;;;;0.7;0.5;;;;;;;;;;;;;
2020/09/30 17:00:31;;;;;;;0.6;0.5;;;;;;;;;;;;;
2020/09/30 17:02:58;;;;;;;1.1;0.5;;;;;;;;;;;;;
2020/09/30 17:05:23;;;;;;;0.6;0.4;;;;;;;;;;;;;
2020/09/30 17:07:49;;;;;;;2.2;0.7;;;;;;;;;;;;;
2020/09/30 17:10:14;;;;;;;0.6;0.6;;;;;;;;;;;;;
2020/09/30 17:12:41;;;;;;;0.8;0.5;;;;;;;;;;;;;
2020/09/30 17:15:06;;;;;;;0.7;0.6;;;;;;;;;;;;;
2020/09/30 17:17:32;;;;;;;3.3;0.7;;;;;;;;;;;;;
2020/09/30 17:19:58;;;;;;;0.5;0.4;;;;;;;;;;;;;
2020/09/30 17:22:23;;;;;;;0.5;0.5;;;;;;;;;;;;;
2020/09/30 17:24:48;;;;;;;1.1;1;;;;;;;;;;;;;
2020/09/30 17:27:14;;;;;;;0.9;0.5;;;;;;;;;;;;;
2020/09/30 17:29:39;;;;;;;1.7;0.6;;;;;;;;;;;;;
2020/09/30 17:32:05;;;;;;;2.1;0.8;;;;;;;;;;;;;
2020/09/30 17:34:30;;;;;;;1.1;0.6;;;;;;;;;;;;;
2020/09/30 17:36:55;;;;;;;1.7;0.6;;;;;;;;;;;;;
2020/09/30 17:39:21;;;;;;;0.7;0.7;;;;;;;;;;;;;
2020/09/30 17:41:46;;;;;;;1.1;0.6;;;;;;;;;;;;;
2020/09/30 17:44:11;;;;;;;2.1;1.3;;;;;;;;;;;;;
2020/09/30 17:46:36;;;;;;;4.2;1.9;;;;;;;;;;;;;
2020/09/30 17:49:02;;;;;;;2.8;1.9;;;;;;;;;;;;;
2020/09/30 17:51:28;;;;;;;3.5;1.9;;;;;;;;;;;;;
2020/09/30 17:53:57;;;;;;;4.5;1.8;;;;;;;;;;;;;
2020/09/30 17:56:18;;;;;;;5.2;1.8;;;;;;;;;;;;;
2020/09/30 17:58:45;;;;;;;1.3;1.1;;;;;;;;;;;;;
2020/09/30 18:01:10;;;;;;;1.5;0.9;;;;;;;;;;;;;
2020/09/30 18:03:37;;;;;;;0.9;0.8;;;;;;;;;;;;;
2020/09/30 18:06:02;;;;;;;1.1;0.9;;;;;;;;;;;;;
2020/09/30 18:08:27;;;;;;;0.8;0.6;;;;;;;;;;;;;
2020/09/30 18:10:52;;;;;;;7.5;3.3;;;;;;;;;;;;;
2020/09/30 18:13:18;;;;;;;4;1.4;;;;;;;;;;;;;
2020/09/30 18:15:43;;;;;;;2.1;1.3;;;;;;;;;;;;;
2020/09/30 18:18:10;;;;;;;1.9;1.3;;;;;;;;;;;;;
2020/09/30 18:20:35;;;;;;;3;1.6;;;;;;;;;;;;;
2020/09/30 18:23:01;;;;;;;1.8;1.1;;;;;;;;;;;;;
2020/09/30 18:25:26;;;;;;;2;1.3;;;;;;;;;;;;;
2020/09/30 18:27:52;;;;;;;2.3;1.3;;;;;;;;;;;;;
2020/09/30 18:30:21;;;;;;;1.1;1;;;;;;;;;;;;;
2020/09/30 18:32:46;;;;;;;3.5;1.1;;;;;;;;;;;;;
2020/09/30 18:35:14;;;;;;;1.5;1.1;;;;;;;;;;;;;
2020/09/30 18:37:39;;;;;;;2;1.2;;;;;;;;;;;;;
2020/09/30 18:40:04;;;;;;;1;0.8;;;;;;;;;;;;;
2020/09/30 18:42:29;;;;;;;1.6;0.9;;;;;;;;;;;;;
2020/09/30 18:44:54;;;;;;;1.5;1.1;;;;;;;;;;;;;
2020/09/30 18:47:20;;;;;;;1.4;1.2;;;;;;;;;;;;;
2020/09/30 18:49:45;;;;;;;10.8;1.4;;;;;;;;;;;;;
2020/09/30 18:52:11;;;;;;;5.1;1.6;;;;;;;;;;;;;
2020/09/30 18:54:36;;;;;;;6.2;2.2;;;;;;;;;;;;;
2020/09/30 18:57:03;;;;;;;3.6;1.9;;;;;;;;;;;;;
2020/09/30 18:59:28;;;;;;;2.7;1.9;;;;;;;;;;;;;
2020/09/30 19:01:56;;;;;;;2.3;1.5;;;;;;;;;;;;;
2020/09/30 19:04:21;;;;;;;2.6;1.8;;;;;;;;;;;;;
2020/09/30 19:06:47;;;;;;;5.2;2.9;;;;;;;;;;;;;
2020/09/30 19:09:13;;;;;;;4.6;2.3;;;;;;;;;;;;;
2020/09/30 19:11:37;;;;;;;2.9;1.8;;;;;;;;;;;;;
2020/09/30 19:14:02;;;;;;;8.7;3.3;;;;;;;;;;;;;
2020/09/30 19:16:29;;;;;;;1.8;1.3;;;;;;;;;;;;;
2020/09/30 19:18:54;;;;;;;2.1;1.2;;;;;;;;;;;;;
2020/09/30 19:21:19;;;;;;;2.9;1.9;;;;;;;;;;;;;
2020/09/30 19:23:45;;;;;;;2.8;1.8;;;;;;;;;;;;;
2020/09/30 19:26:12;;;;;;;3;1.7;;;;;;;;;;;;;
2020/09/30 19:28:37;;;;;;;2.6;1.7;;;;;;;;;;;;;
2020/09/30 19:31:03;;;;;;;2.3;1.6;;;;;;;;;;;;;
2020/09/30 19:33:28;;;;;;;2.3;1.4;;;;;;;;;;;;;
2020/09/30 19:35:53;;;;;;;2.9;1.9;;;;;;;;;;;;;